createdAt,value
2023-04-24T00:00:23.535Z,2.73
2023-04-24T00:02:51.607Z,2.70
2023-04-24T00:05:19.523Z,2.70
2023-04-24T00:07:47.147Z,2.77
2023-04-24T00:10:14.195Z,2.70
2023-04-24T00:12:41.594Z,2.80
2023-04-24T00:15:09.916Z,2.67
2023-04-24T00:17:37.224Z,2.70
2023-04-24T00:20:07.769Z,2.80
2023-04-24T00:22:35.242Z,2.80
2023-04-24T00:25:02.164Z,2.80
2023-04-24T00:27:29.608Z,2.70
2023-04-24T00:29:56.737Z,2.70
2023-04-24T00:32:24.331Z,2.70
2023-04-24T00:34:51.272Z,2.70
2023-04-24T00:37:18.330Z,2.70
2023-04-24T00:39:45.630Z,2.70
2023-04-24T00:42:13.363Z,2.77
2023-04-24T00:44:41.011Z,2.70
2023-04-24T00:47:08.860Z,2.67
2023-04-24T00:49:37.046Z,2.77
2023-04-24T00:52:08.414Z,2.70
2023-04-24T00:54:36.420Z,2.70
2023-04-24T00:57:06.986Z,2.70
2023-04-24T00:59:34.623Z,2.70
2023-04-24T01:02:01.653Z,2.77
2023-04-24T01:04:29.963Z,2.77
2023-04-24T01:06:57.944Z,2.70
2023-04-24T01:09:25.946Z,2.70
2023-04-24T01:11:53.788Z,2.70
2023-04-24T01:14:21.551Z,2.70
2023-04-24T01:16:50.565Z,2.70
2023-04-24T01:19:20.214Z,2.70
2023-04-24T01:21:54.489Z,2.70
2023-04-24T01:24:21.969Z,2.70
2023-04-24T01:26:49.045Z,2.70
2023-04-24T01:29:16.216Z,2.70
2023-04-24T01:31:44.510Z,2.67
2023-04-24T01:34:11.874Z,2.70
2023-04-24T01:36:39.976Z,2.70
2023-04-24T01:39:07.085Z,2.80
2023-04-24T01:41:34.840Z,2.80
2023-04-24T01:44:02.690Z,2.70
2023-04-24T01:46:31.564Z,2.70
2023-04-24T01:49:01.462Z,2.70
2023-04-24T01:51:28.957Z,2.80
2023-04-24T01:53:57.780Z,2.80
2023-04-24T01:56:25.546Z,2.70
2023-04-24T01:58:55.711Z,2.73
2023-04-24T02:01:24.613Z,2.80
2023-04-24T02:03:52.288Z,2.73
2023-04-24T02:06:19.891Z,2.77
2023-04-24T02:08:46.833Z,2.87
2023-04-24T02:11:13.883Z,2.77
2023-04-24T02:13:40.871Z,2.80
2023-04-24T02:16:08.024Z,2.90
2023-04-24T02:18:35.033Z,2.80
2023-04-24T02:21:02.497Z,2.70
2023-04-24T02:23:29.453Z,2.80
2023-04-24T02:25:57.012Z,2.90
2023-04-24T02:28:25.860Z,2.80
2023-04-24T02:30:53.399Z,2.77
2023-04-24T02:33:23.478Z,2.80
2023-04-24T02:35:50.481Z,2.80
2023-04-24T02:38:17.949Z,2.77
2023-04-24T02:40:44.985Z,2.90
2023-04-24T02:43:12.084Z,2.90
2023-04-24T02:45:39.574Z,2.77
2023-04-24T02:48:07.197Z,2.87
2023-04-24T02:50:34.505Z,2.80
2023-04-24T02:53:02.098Z,2.80
2023-04-24T02:55:29.546Z,2.80
2023-04-24T02:57:56.790Z,2.70
2023-04-24T03:00:24.230Z,2.80
2023-04-24T03:02:51.520Z,2.90
2023-04-24T03:05:18.678Z,2.80
2023-04-24T03:07:47.168Z,2.80
2023-04-24T03:10:14.769Z,2.77
2023-04-24T03:12:42.440Z,2.80
2023-04-24T03:15:10.481Z,2.80
2023-04-24T03:17:38.176Z,2.90
2023-04-24T03:20:06.821Z,2.80
2023-04-24T03:22:35.228Z,2.80
2023-04-24T03:25:05.957Z,2.80
2023-04-24T03:27:33.008Z,2.73
2023-04-24T03:30:03.893Z,2.80
2023-04-24T03:32:51.163Z,2.87
2023-04-24T03:35:23.523Z,2.70
2023-04-24T03:37:51.421Z,2.87
2023-04-24T03:40:50.653Z,2.83
2023-04-24T03:43:36.604Z,2.77
2023-04-24T03:46:05.701Z,2.90
2023-04-24T03:48:37.755Z,2.83
2023-04-24T03:51:04.892Z,2.90
2023-04-24T03:53:32.989Z,2.90
2023-04-24T03:56:00.696Z,2.77
2023-04-24T03:58:27.879Z,2.80
2023-04-24T04:00:58.901Z,2.83
2023-04-24T04:03:45.064Z,2.80
2023-04-24T04:06:13.888Z,2.80
2023-04-24T04:08:42.939Z,2.77
2023-04-24T04:11:10.708Z,2.80
2023-04-24T04:13:37.737Z,2.80
2023-04-24T04:16:06.323Z,2.80
2023-04-24T04:18:34.248Z,2.80
2023-04-24T04:21:02.123Z,2.83
2023-04-24T04:23:29.465Z,2.80
2023-04-24T04:26:06.684Z,2.80
2023-04-24T04:28:53.927Z,2.80
2023-04-24T04:31:21.976Z,2.80
2023-04-24T04:33:50.159Z,2.70
2023-04-24T04:36:18.201Z,2.90
2023-04-24T04:38:49.387Z,2.77
2023-04-24T04:41:41.276Z,2.70
2023-04-24T04:44:10.755Z,2.87
2023-04-24T04:46:39.004Z,2.70
2023-04-24T04:49:18.219Z,2.77
2023-04-24T04:51:46.081Z,2.73
2023-04-24T04:54:13.289Z,2.70
2023-04-24T04:56:40.900Z,2.60
2023-04-24T04:59:07.944Z,2.70
2023-04-24T05:01:38.389Z,2.70
2023-04-24T05:04:08.095Z,2.80
2023-04-24T05:06:35.274Z,2.60
2023-04-24T05:09:02.792Z,2.70
2023-04-24T05:11:37.476Z,2.63
2023-04-24T05:14:04.957Z,2.70
2023-04-24T05:16:41.182Z,2.90
2023-04-24T05:19:11.631Z,2.63
2023-04-24T05:21:42.663Z,2.70
2023-04-24T05:24:11.446Z,2.70
2023-04-24T05:26:48.952Z,2.60
2023-04-24T05:29:20.150Z,2.60
2023-04-24T05:31:47.247Z,2.67
2023-04-24T05:34:15.197Z,2.63
2023-04-24T05:36:45.023Z,2.67
2023-04-24T05:39:12.576Z,2.67
2023-04-24T05:41:39.538Z,2.60
2023-04-24T05:44:06.992Z,2.67
2023-04-24T05:46:34.131Z,2.60
2023-04-24T05:49:01.207Z,2.67
2023-04-24T05:51:29.397Z,2.50
2023-04-24T05:53:57.264Z,2.80
2023-04-24T05:56:26.404Z,2.73
2023-04-24T05:58:53.470Z,2.70
2023-04-24T06:01:24.277Z,2.63
2023-04-24T06:04:00.182Z,2.60
2023-04-24T06:06:30.595Z,2.70
2023-04-24T06:08:59.456Z,2.60
2023-04-24T06:11:28.272Z,2.60
2023-04-24T06:13:55.819Z,2.63
2023-04-24T06:16:55.304Z,2.60
2023-04-24T06:19:32.779Z,2.80
2023-04-24T06:22:00.313Z,2.60
2023-04-24T06:24:30.427Z,2.60
2023-04-24T06:27:00.798Z,2.50
2023-04-24T06:29:28.590Z,2.53
2023-04-24T06:31:55.580Z,2.60
2023-04-24T06:34:22.724Z,2.60
2023-04-24T06:36:49.715Z,2.57
2023-04-24T06:39:16.685Z,2.47
2023-04-24T06:41:43.706Z,2.50
2023-04-24T06:44:19.503Z,2.50
2023-04-24T06:46:47.750Z,2.40
2023-04-24T06:49:16.910Z,2.43
2023-04-24T06:51:43.926Z,2.47
2023-04-24T06:54:11.766Z,2.33
2023-04-24T06:56:39.294Z,2.50
2023-04-24T06:59:06.239Z,2.37
2023-04-24T07:01:33.253Z,2.30
2023-04-24T07:04:00.580Z,2.50
2023-04-24T07:06:28.217Z,2.50
2023-04-24T07:08:56.111Z,2.50
2023-04-24T07:11:23.688Z,2.50
2023-04-24T07:13:51.064Z,2.60
2023-04-24T07:16:18.549Z,2.63
2023-04-24T07:18:46.013Z,2.60
2023-04-24T07:21:13.457Z,2.60
2023-04-24T07:23:42.218Z,2.70
2023-04-24T07:26:09.765Z,2.50
2023-04-24T07:28:37.204Z,2.67
2023-04-24T07:31:04.722Z,2.67
2023-04-24T07:33:32.244Z,2.60
2023-04-24T07:36:00.624Z,2.60
2023-04-24T07:38:30.717Z,2.60
2023-04-24T07:40:58.458Z,2.60
2023-04-24T07:43:25.597Z,2.60
2023-04-24T07:45:52.957Z,2.60
2023-04-24T07:48:22.375Z,2.63
2023-04-24T07:50:49.861Z,2.67
2023-04-24T07:53:16.922Z,2.60
2023-04-24T07:55:44.199Z,2.63
2023-04-24T07:58:11.149Z,2.70
2023-04-24T08:03:54.674Z,2.50
2023-04-24T08:06:21.896Z,2.57
2023-04-24T08:08:49.331Z,2.57
2023-04-24T08:11:16.336Z,2.53
2023-04-24T08:13:43.847Z,2.50
2023-04-24T08:16:11.327Z,2.50
2023-04-24T08:18:38.316Z,2.50
2023-04-24T08:21:05.747Z,2.50
2023-04-24T08:23:32.828Z,2.47
2023-04-24T08:25:59.997Z,2.50
2023-04-24T08:28:27.008Z,2.40
2023-04-24T08:30:55.753Z,2.50
2023-04-24T08:33:25.094Z,2.47
2023-04-24T08:35:53.527Z,2.40
2023-04-24T08:38:21.036Z,2.40
2023-04-24T08:40:50.461Z,2.50
2023-04-24T08:43:18.378Z,2.50
2023-04-24T08:45:45.990Z,2.50
2023-04-24T08:48:27.434Z,2.47
2023-04-24T08:50:59.478Z,2.50
2023-04-24T08:53:27.755Z,2.50
2023-04-24T08:55:57.607Z,2.37
2023-04-24T08:58:27.500Z,2.40
2023-04-24T09:00:59.322Z,2.50
2023-04-24T09:03:29.708Z,2.40
2023-04-24T09:05:58.362Z,2.40
2023-04-24T09:08:27.396Z,2.47
2023-04-24T09:10:54.861Z,2.43
2023-04-24T09:13:22.384Z,2.37
2023-04-24T09:15:50.360Z,2.50
2023-04-24T09:18:18.262Z,2.40
2023-04-24T09:21:24.146Z,2.63
2023-04-24T09:24:04.964Z,2.60
2023-04-24T09:26:35.251Z,2.50
2023-04-24T09:29:02.424Z,2.40
2023-04-24T09:31:30.910Z,2.60
2023-04-24T09:34:02.645Z,2.60
2023-04-24T09:36:40.196Z,2.40
2023-04-24T09:39:17.255Z,2.47
2023-04-24T09:41:58.702Z,2.53
2023-04-24T09:44:29.124Z,2.50
2023-04-24T09:46:59.917Z,2.50
2023-04-24T09:49:36.675Z,2.50
2023-04-24T09:52:14.700Z,2.40
2023-04-24T09:54:42.236Z,2.33
2023-04-24T09:57:10.269Z,2.43
2023-04-24T09:59:45.562Z,2.30
2023-04-24T10:02:21.371Z,2.37
2023-04-24T10:05:00.449Z,2.50
2023-04-24T10:07:28.693Z,2.57
2023-04-24T10:09:56.038Z,2.47
2023-04-24T10:12:24.091Z,2.40
2023-04-24T10:14:52.303Z,2.40
2023-04-24T10:17:21.730Z,2.50
2023-04-24T10:19:49.322Z,2.40
2023-04-24T10:22:19.086Z,2.47
2023-04-24T10:24:48.501Z,2.60
2023-04-24T10:27:16.481Z,2.63
2023-04-24T10:29:45.745Z,2.57
2023-04-24T10:32:12.815Z,2.60
2023-04-24T10:34:40.382Z,2.50
2023-04-24T10:37:07.799Z,2.43
2023-04-24T10:39:36.247Z,2.37
2023-04-24T10:42:03.528Z,2.40
2023-04-24T10:44:37.989Z,2.33
2023-04-24T10:47:05.391Z,2.20
2023-04-24T10:49:33.312Z,2.30
2023-04-24T10:52:08.685Z,2.20
2023-04-24T10:54:41.679Z,2.30
2023-04-24T10:57:35.242Z,2.20
2023-04-24T11:00:23.068Z,2.03
2023-04-24T11:02:51.596Z,2.17
2023-04-24T11:05:21.235Z,2.20
2023-04-24T11:08:23.689Z,2.20
2023-04-24T11:11:09.939Z,2.10
2023-04-24T11:14:07.509Z,2.20
2023-04-24T11:16:55.881Z,2.27
2023-04-24T11:19:29.414Z,2.20
2023-04-24T11:22:05.658Z,2.10
2023-04-24T11:24:52.067Z,2.00
2023-04-24T11:27:25.304Z,2.10
2023-04-24T11:29:58.494Z,2.20
2023-04-24T11:32:34.143Z,2.30
2023-04-24T11:35:04.370Z,2.30
2023-04-24T11:37:41.223Z,2.50
2023-04-24T11:40:14.311Z,2.30
2023-04-24T11:42:48.115Z,2.30
2023-04-24T11:45:26.091Z,2.30
2023-04-24T11:47:54.072Z,2.20
2023-04-24T11:50:30.269Z,2.37
2023-04-24T11:52:58.157Z,2.20
2023-04-24T11:55:28.889Z,2.27
2023-04-24T11:57:59.412Z,2.10
2023-04-24T12:00:34.515Z,2.30
2023-04-24T12:03:13.380Z,2.40
2023-04-24T12:05:41.583Z,2.40
2023-04-24T12:08:08.893Z,2.40
2023-04-24T12:10:36.842Z,2.30
2023-04-24T12:13:04.500Z,2.20
2023-04-24T12:15:32.228Z,2.20
2023-04-24T12:18:02.083Z,2.23
2023-04-24T12:20:33.862Z,2.30
2023-04-24T12:23:02.320Z,2.50
2023-04-24T12:25:34.161Z,2.50
2023-04-24T12:28:04.198Z,2.50
2023-04-24T12:30:45.162Z,2.50
2023-04-24T12:33:13.012Z,2.50
2023-04-24T12:35:42.350Z,2.50
2023-04-24T12:38:14.742Z,2.40
2023-04-24T12:40:45.853Z,2.40
2023-04-24T12:43:19.484Z,2.40
2023-04-24T12:45:48.587Z,2.47
2023-04-24T12:48:15.881Z,2.47
2023-04-24T12:50:46.138Z,2.43
2023-04-24T12:53:15.163Z,2.47
2023-04-24T12:55:42.704Z,2.50
2023-04-24T12:58:10.155Z,2.40
2023-04-24T13:00:38.253Z,2.60
2023-04-24T13:03:05.834Z,2.50
2023-04-24T13:05:33.304Z,2.50
2023-04-24T13:08:00.754Z,2.60
2023-04-24T13:10:27.738Z,2.43
2023-04-24T13:12:54.781Z,2.60
2023-04-24T13:15:21.834Z,2.60
2023-04-24T13:17:49.251Z,2.53
2023-04-24T13:20:16.252Z,2.37
2023-04-24T13:22:43.320Z,2.27
2023-04-24T13:25:11.113Z,2.20
2023-04-24T13:27:40.552Z,2.30
2023-04-24T13:30:08.833Z,2.20
2023-04-24T13:32:36.670Z,2.13
2023-04-24T13:35:04.027Z,2.13
2023-04-24T13:37:30.986Z,2.17
2023-04-24T13:39:58.375Z,2.40
2023-04-24T13:42:25.511Z,2.33
2023-04-24T13:44:54.915Z,2.33
2023-04-24T13:47:22.379Z,2.50
2023-04-24T13:49:49.553Z,2.50
2023-04-24T13:52:16.571Z,2.53
2023-04-24T13:54:43.984Z,2.53
2023-04-24T13:57:11.562Z,2.60
2023-04-24T13:59:39.096Z,2.47
2023-04-24T14:02:06.662Z,2.50
2023-04-24T14:04:33.832Z,2.40
2023-04-24T14:07:01.543Z,2.40
2023-04-24T14:09:28.514Z,2.30
2023-04-24T14:11:55.611Z,2.33
2023-04-24T14:14:22.630Z,2.37
2023-04-24T14:16:49.973Z,2.40
2023-04-24T14:19:17.409Z,2.40
2023-04-24T14:21:44.420Z,2.40
2023-04-24T14:24:11.798Z,2.47
2023-04-24T14:26:38.927Z,2.50
2023-04-24T14:29:14.109Z,2.50
2023-04-24T14:31:43.267Z,2.40
2023-04-24T14:34:10.613Z,2.30
2023-04-24T14:36:38.026Z,2.33
2023-04-24T14:39:07.536Z,2.40
2023-04-24T14:41:38.354Z,2.30
2023-04-24T14:44:06.175Z,2.20
2023-04-24T14:46:33.550Z,2.10
2023-04-24T14:49:00.988Z,2.20
2023-04-24T14:51:28.097Z,2.20
2023-04-24T14:53:55.283Z,2.10
2023-04-24T14:56:22.735Z,2.30
2023-04-24T14:58:49.791Z,2.30
2023-04-24T15:01:18.102Z,2.30
2023-04-24T15:03:46.843Z,2.50
2023-04-24T15:06:14.339Z,2.40
2023-04-24T15:08:41.464Z,2.43
2023-04-24T15:11:09.706Z,2.40
2023-04-24T15:13:37.148Z,2.40
2023-04-24T15:16:04.357Z,2.30
2023-04-24T15:18:31.901Z,2.50
2023-04-24T15:20:59.330Z,2.60
2023-04-24T15:23:26.710Z,2.70
2023-04-24T15:25:54.196Z,2.70
2023-04-24T15:28:22.624Z,2.80
2023-04-24T15:30:49.601Z,2.77
2023-04-24T15:33:16.635Z,2.70
2023-04-24T15:35:43.658Z,2.80
2023-04-24T15:38:10.680Z,2.73
2023-04-24T15:40:38.305Z,2.70
2023-04-24T15:43:05.726Z,2.73
2023-04-24T15:45:34.298Z,2.70
2023-04-24T15:48:01.863Z,2.90
2023-04-24T15:50:29.110Z,2.67
2023-04-24T15:52:56.162Z,2.77
2023-04-24T15:55:23.185Z,2.60
2023-04-24T15:57:50.307Z,2.53
2023-04-24T16:00:18.197Z,2.60
2023-04-24T16:02:47.318Z,2.50
2023-04-24T16:05:14.883Z,2.40
2023-04-24T16:07:41.934Z,2.50
2023-04-24T16:10:10.061Z,2.50
2023-04-24T16:12:37.247Z,2.60
2023-04-24T16:15:05.616Z,2.47
2023-04-24T16:17:33.138Z,2.50
2023-04-24T16:20:00.223Z,2.50
2023-04-24T16:22:27.237Z,2.50
2023-04-24T16:24:54.692Z,2.60
2023-04-24T16:27:21.722Z,2.50
2023-04-24T16:29:48.672Z,2.53
2023-04-24T16:32:15.699Z,2.60
2023-04-24T16:34:42.786Z,2.53
2023-04-24T16:37:12.140Z,2.50
2023-04-24T16:39:44.730Z,2.40
2023-04-24T16:42:13.237Z,2.50
2023-04-24T16:44:42.070Z,2.50
2023-04-24T16:47:11.581Z,2.47
2023-04-24T16:49:38.576Z,2.53
2023-04-24T16:52:06.070Z,2.43
2023-04-24T16:54:35.516Z,2.47
2023-04-24T16:57:04.428Z,2.50
2023-04-24T16:59:34.897Z,2.50
2023-04-24T17:02:02.152Z,2.50
2023-04-24T17:04:29.808Z,2.40
2023-04-24T17:06:56.910Z,2.40
2023-04-24T17:09:24.355Z,2.40
2023-04-24T17:11:51.796Z,2.50
2023-04-24T17:14:18.868Z,2.50
2023-04-24T17:16:46.487Z,2.43
2023-04-24T17:19:14.681Z,2.50
2023-04-24T17:21:41.664Z,2.50
2023-04-24T17:24:09.079Z,2.37
2023-04-24T17:26:36.132Z,2.40
2023-04-24T17:29:03.471Z,2.40
2023-04-24T17:31:30.612Z,2.40
2023-04-24T17:33:59.260Z,2.50
2023-04-24T17:36:26.329Z,2.40
2023-04-24T17:38:53.654Z,2.47
2023-04-24T17:41:21.469Z,2.50
2023-04-24T17:43:48.601Z,2.60
2023-04-24T17:46:15.678Z,2.53
2023-04-24T17:48:42.948Z,2.47
2023-04-24T17:51:10.751Z,2.60
2023-04-24T17:53:38.156Z,2.80
2023-04-24T17:56:06.956Z,2.67
2023-04-24T17:58:35.283Z,2.70
2023-04-24T18:01:03.175Z,2.73
2023-04-24T18:03:34.643Z,2.60
2023-04-24T18:06:06.359Z,2.60
2023-04-24T18:08:34.445Z,2.57
2023-04-24T18:11:02.135Z,2.53
2023-04-24T18:13:29.107Z,2.60
2023-04-24T18:15:56.699Z,2.70
2023-04-24T18:18:24.226Z,2.70
2023-04-24T18:20:51.255Z,2.63
2023-04-24T18:23:19.051Z,2.50
2023-04-24T18:25:47.180Z,2.63
2023-04-24T18:28:15.066Z,2.57
2023-04-24T18:30:45.107Z,2.60
2023-04-24T18:33:12.791Z,2.60
2023-04-24T18:35:40.630Z,2.50
2023-04-24T18:38:07.957Z,2.60
2023-04-24T18:40:35.442Z,2.70
2023-04-24T18:43:02.533Z,2.50
2023-04-24T18:45:29.543Z,2.70
2023-04-24T18:47:56.590Z,2.60
2023-04-24T18:50:25.623Z,2.60
2023-04-24T18:52:52.748Z,2.57
2023-04-24T18:55:20.554Z,2.67
2023-04-24T18:57:51.929Z,2.80
2023-04-24T19:00:19.913Z,2.77
2023-04-24T19:02:47.217Z,2.60
2023-04-24T19:05:15.062Z,2.67
2023-04-24T19:07:42.375Z,2.70
2023-04-24T19:10:13.990Z,2.70
2023-04-24T19:12:43.518Z,2.70
2023-04-24T19:15:14.582Z,2.80
2023-04-24T19:17:44.883Z,2.80
2023-04-24T19:20:18.158Z,2.70
2023-04-24T19:22:47.042Z,2.70
2023-04-24T19:25:14.623Z,2.70
2023-04-24T19:27:41.744Z,2.60
2023-04-24T19:30:09.849Z,2.70
2023-04-24T19:32:37.512Z,2.80
2023-04-24T19:35:05.730Z,2.60
2023-04-24T19:37:35.950Z,2.70
2023-04-24T19:40:03.579Z,2.67
2023-04-24T19:42:42.685Z,2.70
2023-04-24T19:45:13.568Z,2.83
2023-04-24T19:47:41.288Z,2.57
2023-04-24T19:50:09.417Z,2.70
2023-04-24T19:52:36.431Z,2.60
2023-04-24T19:55:04.563Z,2.80
2023-04-24T19:57:31.560Z,2.80
2023-04-24T19:59:58.576Z,2.80
2023-04-24T20:02:25.962Z,2.73
2023-04-24T20:04:53.423Z,2.83
2023-04-24T20:07:21.794Z,2.73
2023-04-24T20:09:48.827Z,2.90
2023-04-24T20:12:16.039Z,2.83
2023-04-24T20:14:43.515Z,2.80
2023-04-24T20:17:10.635Z,2.83
2023-04-24T20:19:38.801Z,2.73
2023-04-24T20:22:05.885Z,2.87
2023-04-24T20:24:33.577Z,2.80
2023-04-24T20:27:01.884Z,2.83
2023-04-24T20:29:29.260Z,2.80
2023-04-24T20:31:56.747Z,2.80
2023-04-24T20:34:24.326Z,2.80
2023-04-24T20:36:51.876Z,2.80
2023-04-24T20:39:19.368Z,2.80
2023-04-24T20:41:47.424Z,2.77
2023-04-24T20:44:14.750Z,3.00
2023-04-24T20:46:42.247Z,2.83
2023-04-24T20:49:09.229Z,2.87
2023-04-24T20:51:36.861Z,2.90
2023-04-24T20:54:04.155Z,2.90
2023-04-24T20:56:32.075Z,3.00
2023-04-24T20:59:00.396Z,2.83
2023-04-24T21:01:29.929Z,2.87
2023-04-24T21:03:57.605Z,2.90
2023-04-24T21:06:25.188Z,2.93
2023-04-24T21:08:52.254Z,2.90
2023-04-24T21:11:19.177Z,2.80
2023-04-24T21:13:46.906Z,2.83
2023-04-24T21:16:18.754Z,2.87
2023-04-24T21:18:45.870Z,2.90
2023-04-24T21:21:12.825Z,2.80
2023-04-24T21:23:39.970Z,2.90
2023-04-24T21:26:07.858Z,2.80
2023-04-24T21:28:37.079Z,2.83
2023-04-24T21:31:06.096Z,2.83
2023-04-24T21:33:33.392Z,2.80
2023-04-24T21:36:00.405Z,2.80
2023-04-24T21:38:27.460Z,2.90
2023-04-24T21:40:54.572Z,2.77
2023-04-24T21:43:28.023Z,2.80
2023-04-24T21:46:04.519Z,2.80
2023-04-24T21:48:31.604Z,2.80
2023-04-24T21:50:59.097Z,2.77
2023-04-24T21:53:26.464Z,2.83
2023-04-24T21:55:53.439Z,2.80
2023-04-24T21:58:20.920Z,2.73
2023-04-24T22:00:47.962Z,2.80
2023-04-24T22:03:15.692Z,2.80
2023-04-24T22:05:42.828Z,2.80
2023-04-24T22:08:10.351Z,2.80
2023-04-24T22:10:37.857Z,2.80
2023-04-24T22:13:05.330Z,2.80
2023-04-24T22:15:32.397Z,2.90
2023-04-24T22:18:01.080Z,2.90
2023-04-24T22:20:28.115Z,2.80
2023-04-24T22:22:55.621Z,2.87
2023-04-24T22:25:22.656Z,2.90
2023-04-24T22:27:49.637Z,2.90
2023-04-24T22:30:17.103Z,3.00
2023-04-24T22:32:44.362Z,2.80
2023-04-24T22:35:11.829Z,2.87
2023-04-24T22:37:39.197Z,2.80
2023-04-24T22:40:08.342Z,2.90
2023-04-24T22:42:35.691Z,2.80
2023-04-24T22:45:04.453Z,2.80
2023-04-24T22:47:31.617Z,2.80
2023-04-24T22:49:59.218Z,2.90
2023-04-24T22:52:28.737Z,2.80
2023-04-24T22:54:56.139Z,2.90
2023-04-24T22:57:23.123Z,2.77
2023-04-24T22:59:50.570Z,2.73
2023-04-24T23:02:18.058Z,2.80
2023-04-24T23:04:45.574Z,2.83
2023-04-24T23:07:12.510Z,2.83
2023-04-24T23:09:39.528Z,2.83
2023-04-24T23:12:07.056Z,2.90
2023-04-24T23:14:34.223Z,2.73
2023-04-24T23:17:01.257Z,2.73
2023-04-24T23:19:28.779Z,2.80
2023-04-24T23:21:55.765Z,2.73
2023-04-24T23:24:23.269Z,2.70
2023-04-24T23:26:50.403Z,2.80
2023-04-24T23:29:17.387Z,2.70
2023-04-24T23:31:44.357Z,2.70
2023-04-24T23:34:11.809Z,2.73
2023-04-24T23:36:39.294Z,2.70
2023-04-24T23:39:06.692Z,2.80
2023-04-24T23:41:33.740Z,2.70
2023-04-24T23:44:01.222Z,2.70
2023-04-24T23:46:28.233Z,2.80
2023-04-24T23:48:55.728Z,2.73
2023-04-24T23:51:23.024Z,2.70
2023-04-24T23:53:50.367Z,2.70
2023-04-24T23:56:18.176Z,2.83
2023-04-24T23:58:46.755Z,2.80
